sensor_id;sensor_type;location;lat;lon;timestamp;P1;durP1;ratioP1;P2;durP2;ratioP2
37609;SDS011;23457;51.966;8.230;2022-10-26T00:00:48;14.10;;;10.05;;
37609;SDS011;23457;51.966;8.230;2022-10-26T00:03:15;17.00;;;9.70;;
37609;SDS011;23457;51.966;8.230;2022-10-26T00:05:43;17.10;;;9.02;;
37609;SDS011;23457;51.966;8.230;2022-10-26T00:08:10;14.90;;;8.88;;
37609;SDS011;23457;51.966;8.230;2022-10-26T00:10:37;14.27;;;8.35;;
37609;SDS011;23457;51.966;8.230;2022-10-26T00:13:05;16.50;;;8.40;;
37609;SDS011;23457;51.966;8.230;2022-10-26T00:15:38;16.05;;;8.30;;
37609;SDS011;23457;51.966;8.230;2022-10-26T00:18:07;12.88;;;7.65;;
37609;SDS011;23457;51.966;8.230;2022-10-26T00:20:34;13.13;;;8.70;;
37609;SDS011;23457;51.966;8.230;2022-10-26T00:23:01;17.20;;;8.85;;
37609;SDS011;23457;51.966;8.230;2022-10-26T00:25:28;11.73;;;9.02;;
37609;SDS011;23457;51.966;8.230;2022-10-26T00:27:55;19.35;;;8.80;;
37609;SDS011;23457;51.966;8.230;2022-10-26T00:30:22;12.32;;;8.05;;
37609;SDS011;23457;51.966;8.230;2022-10-26T00:32:49;14.60;;;8.45;;
37609;SDS011;23457;51.966;8.230;2022-10-26T00:35:16;14.35;;;8.27;;
37609;SDS011;23457;51.966;8.230;2022-10-26T00:37:54;17.67;;;8.20;;
37609;SDS011;23457;51.966;8.230;2022-10-26T00:40:21;10.68;;;7.38;;
37609;SDS011;23457;51.966;8.230;2022-10-26T00:42:53;17.38;;;9.23;;
37609;SDS011;23457;51.966;8.230;2022-10-26T00:45:26;13.23;;;8.15;;
37609;SDS011;23457;51.966;8.230;2022-10-26T00:48:05;12.88;;;7.40;;
37609;SDS011;23457;51.966;8.230;2022-10-26T00:50:36;12.30;;;6.68;;
37609;SDS011;23457;51.966;8.230;2022-10-26T00:53:07;11.75;;;7.38;;
37609;SDS011;23457;51.966;8.230;2022-10-26T00:55:46;12.57;;;6.93;;
37609;SDS011;23457;51.966;8.230;2022-10-26T00:58:16;13.80;;;7.20;;
37609;SDS011;23457;51.966;8.230;2022-10-26T01:00:44;14.57;;;8.02;;
37609;SDS011;23457;51.966;8.230;2022-10-26T01:03:11;9.75;;;6.68;;
37609;SDS011;23457;51.966;8.230;2022-10-26T01:05:39;10.27;;;7.03;;
37609;SDS011;23457;51.966;8.230;2022-10-26T01:08:07;15.52;;;8.43;;
37609;SDS011;23457;51.966;8.230;2022-10-26T01:10:35;10.18;;;7.15;;
37609;SDS011;23457;51.966;8.230;2022-10-26T01:13:04;11.90;;;7.60;;
37609;SDS011;23457;51.966;8.230;2022-10-26T01:15:37;16.70;;;7.28;;
37609;SDS011;23457;51.966;8.230;2022-10-26T01:27:39;12.48;;;7.32;;
37609;SDS011;23457;51.966;8.230;2022-10-26T01:32:54;18.90;;;6.93;;
37609;SDS011;23457;51.966;8.230;2022-10-26T01:35:33;14.20;;;6.90;;
37609;SDS011;23457;51.966;8.230;2022-10-26T01:43:35;15.52;;;6.63;;
37609;SDS011;23457;51.966;8.230;2022-10-26T01:46:05;12.38;;;7.40;;
37609;SDS011;23457;51.966;8.230;2022-10-26T01:48:35;9.55;;;6.20;;
37609;SDS011;23457;51.966;8.230;2022-10-26T01:51:03;9.57;;;6.22;;
37609;SDS011;23457;51.966;8.230;2022-10-26T01:53:32;16.25;;;5.85;;
37609;SDS011;23457;51.966;8.230;2022-10-26T01:55:59;15.18;;;6.00;;
37609;SDS011;23457;51.966;8.230;2022-10-26T02:09:58;11.65;;;6.22;;
37609;SDS011;23457;51.966;8.230;2022-10-26T02:13:17;13.02;;;5.78;;
37609;SDS011;23457;51.966;8.230;2022-10-26T02:15:41;7.10;;;5.15;;
37609;SDS011;23457;51.966;8.230;2022-10-26T02:18:32;15.85;;;6.78;;
37609;SDS011;23457;51.966;8.230;2022-10-26T02:21:15;12.45;;;6.07;;
37609;SDS011;23457;51.966;8.230;2022-10-26T02:23:46;13.73;;;5.75;;
37609;SDS011;23457;51.966;8.230;2022-10-26T02:26:19;7.95;;;5.25;;
37609;SDS011;23457;51.966;8.230;2022-10-26T02:28:50;13.35;;;5.22;;
37609;SDS011;23457;51.966;8.230;2022-10-26T02:31:22;10.82;;;5.38;;
37609;SDS011;23457;51.966;8.230;2022-10-26T02:33:51;15.68;;;6.20;;
37609;SDS011;23457;51.966;8.230;2022-10-26T02:36:21;13.05;;;6.53;;
37609;SDS011;23457;51.966;8.230;2022-10-26T02:38:52;10.55;;;5.97;;
37609;SDS011;23457;51.966;8.230;2022-10-26T02:41:20;12.18;;;5.70;;
37609;SDS011;23457;51.966;8.230;2022-10-26T02:43:52;13.70;;;5.82;;
37609;SDS011;23457;51.966;8.230;2022-10-26T02:46:25;14.75;;;5.93;;
37609;SDS011;23457;51.966;8.230;2022-10-26T02:48:53;10.80;;;5.70;;
37609;SDS011;23457;51.966;8.230;2022-10-26T02:57:36;13.65;;;5.90;;
37609;SDS011;23457;51.966;8.230;2022-10-26T03:00:09;7.68;;;4.82;;
37609;SDS011;23457;51.966;8.230;2022-10-26T03:02:42;10.70;;;5.30;;
37609;SDS011;23457;51.966;8.230;2022-10-26T03:05:19;12.27;;;4.97;;
37609;SDS011;23457;51.966;8.230;2022-10-26T03:07:49;10.48;;;5.50;;
37609;SDS011;23457;51.966;8.230;2022-10-26T03:10:17;11.38;;;6.18;;
37609;SDS011;23457;51.966;8.230;2022-10-26T03:12:44;10.05;;;5.30;;
37609;SDS011;23457;51.966;8.230;2022-10-26T03:15:11;11.88;;;6.15;;
37609;SDS011;23457;51.966;8.230;2022-10-26T03:17:38;9.77;;;5.78;;
37609;SDS011;23457;51.966;8.230;2022-10-26T03:20:05;7.90;;;5.47;;
37609;SDS011;23457;51.966;8.230;2022-10-26T03:22:32;9.80;;;5.32;;
37609;SDS011;23457;51.966;8.230;2022-10-26T03:24:58;12.65;;;5.63;;
37609;SDS011;23457;51.966;8.230;2022-10-26T03:27:25;14.20;;;5.88;;
37609;SDS011;23457;51.966;8.230;2022-10-26T03:29:52;13.93;;;6.25;;
37609;SDS011;23457;51.966;8.230;2022-10-26T03:32:19;6.60;;;5.07;;
37609;SDS011;23457;51.966;8.230;2022-10-26T03:34:45;8.88;;;6.05;;
37609;SDS011;23457;51.966;8.230;2022-10-26T03:37:12;7.20;;;5.28;;
37609;SDS011;23457;51.966;8.230;2022-10-26T03:39:39;11.57;;;6.05;;
37609;SDS011;23457;51.966;8.230;2022-10-26T03:42:05;9.48;;;5.72;;
37609;SDS011;23457;51.966;8.230;2022-10-26T03:44:32;12.30;;;6.10;;
37609;SDS011;23457;51.966;8.230;2022-10-26T03:46:58;10.18;;;5.88;;
37609;SDS011;23457;51.966;8.230;2022-10-26T03:49:25;10.63;;;5.93;;
37609;SDS011;23457;51.966;8.230;2022-10-26T03:51:52;12.25;;;6.97;;
37609;SDS011;23457;51.966;8.230;2022-10-26T03:54:18;11.32;;;6.40;;
37609;SDS011;23457;51.966;8.230;2022-10-26T03:56:45;10.48;;;5.80;;
37609;SDS011;23457;51.966;8.230;2022-10-26T03:59:15;12.70;;;6.40;;
37609;SDS011;23457;51.966;8.230;2022-10-26T04:01:42;12.95;;;7.15;;
37609;SDS011;23457;51.966;8.230;2022-10-26T04:04:08;11.80;;;6.28;;
37609;SDS011;23457;51.966;8.230;2022-10-26T04:06:35;13.38;;;6.68;;
37609;SDS011;23457;51.966;8.230;2022-10-26T04:09:01;15.43;;;6.63;;
37609;SDS011;23457;51.966;8.230;2022-10-26T04:11:29;14.85;;;7.05;;
37609;SDS011;23457;51.966;8.230;2022-10-26T04:13:56;11.95;;;7.03;;
37609;SDS011;23457;51.966;8.230;2022-10-26T04:16:25;15.35;;;7.57;;
37609;SDS011;23457;51.966;8.230;2022-10-26T04:18:58;12.75;;;6.78;;
37609;SDS011;23457;51.966;8.230;2022-10-26T04:21:26;15.32;;;6.85;;
37609;SDS011;23457;51.966;8.230;2022-10-26T04:23:52;11.18;;;7.13;;
37609;SDS011;23457;51.966;8.230;2022-10-26T04:26:19;14.98;;;7.00;;
37609;SDS011;23457;51.966;8.230;2022-10-26T04:28:46;11.95;;;6.75;;
37609;SDS011;23457;51.966;8.230;2022-10-26T04:31:12;14.23;;;8.07;;
37609;SDS011;23457;51.966;8.230;2022-10-26T04:33:39;13.43;;;7.25;;
37609;SDS011;23457;51.966;8.230;2022-10-26T04:36:06;14.00;;;7.80;;
37609;SDS011;23457;51.966;8.230;2022-10-26T04:38:33;11.63;;;7.90;;
37609;SDS011;23457;51.966;8.230;2022-10-26T04:40:59;17.15;;;8.00;;
37609;SDS011;23457;51.966;8.230;2022-10-26T04:43:26;11.02;;;7.10;;
37609;SDS011;23457;51.966;8.230;2022-10-26T04:45:53;12.50;;;7.63;;
37609;SDS011;23457;51.966;8.230;2022-10-26T04:48:23;16.08;;;7.20;;
37609;SDS011;23457;51.966;8.230;2022-10-26T04:50:57;15.68;;;8.38;;
37609;SDS011;23457;51.966;8.230;2022-10-26T04:53:25;10.88;;;7.85;;
37609;SDS011;23457;51.966;8.230;2022-10-26T04:55:59;17.00;;;8.75;;
37609;SDS011;23457;51.966;8.230;2022-10-26T04:58:27;15.52;;;8.68;;
37609;SDS011;23457;51.966;8.230;2022-10-26T05:00:54;13.82;;;8.45;;
37609;SDS011;23457;51.966;8.230;2022-10-26T05:03:20;18.83;;;9.55;;
37609;SDS011;23457;51.966;8.230;2022-10-26T05:05:47;19.40;;;8.95;;
37609;SDS011;23457;51.966;8.230;2022-10-26T05:08:14;17.60;;;8.75;;
37609;SDS011;23457;51.966;8.230;2022-10-26T05:10:41;14.23;;;8.68;;
37609;SDS011;23457;51.966;8.230;2022-10-26T05:13:08;12.73;;;8.32;;
37609;SDS011;23457;51.966;8.230;2022-10-26T05:15:35;17.13;;;8.93;;
37609;SDS011;23457;51.966;8.230;2022-10-26T05:18:02;14.70;;;8.95;;
37609;SDS011;23457;51.966;8.230;2022-10-26T05:20:31;19.08;;;8.85;;
37609;SDS011;23457;51.966;8.230;2022-10-26T05:23:03;18.08;;;8.82;;
37609;SDS011;23457;51.966;8.230;2022-10-26T05:25:33;17.63;;;9.32;;
37609;SDS011;23457;51.966;8.230;2022-10-26T05:28:03;15.40;;;9.68;;
37609;SDS011;23457;51.966;8.230;2022-10-26T05:30:31;15.68;;;9.23;;
37609;SDS011;23457;51.966;8.230;2022-10-26T05:32:59;15.93;;;8.75;;
37609;SDS011;23457;51.966;8.230;2022-10-26T05:35:28;20.42;;;9.63;;
37609;SDS011;23457;51.966;8.230;2022-10-26T05:37:55;15.38;;;9.88;;
37609;SDS011;23457;51.966;8.230;2022-10-26T05:40:22;17.55;;;9.15;;
37609;SDS011;23457;51.966;8.230;2022-10-26T05:42:49;15.70;;;9.57;;
37609;SDS011;23457;51.966;8.230;2022-10-26T05:45:48;18.20;;;9.65;;
37609;SDS011;23457;51.966;8.230;2022-10-26T05:48:15;16.40;;;10.48;;
37609;SDS011;23457;51.966;8.230;2022-10-26T05:50:43;18.08;;;9.50;;
37609;SDS011;23457;51.966;8.230;2022-10-26T05:53:10;16.08;;;10.07;;
37609;SDS011;23457;51.966;8.230;2022-10-26T05:55:37;15.48;;;9.43;;
37609;SDS011;23457;51.966;8.230;2022-10-26T05:58:08;14.43;;;8.90;;
37609;SDS011;23457;51.966;8.230;2022-10-26T06:03:46;16.42;;;9.13;;
37609;SDS011;23457;51.966;8.230;2022-10-26T06:06:41;12.45;;;7.97;;
37609;SDS011;23457;51.966;8.230;2022-10-26T06:09:10;14.18;;;9.63;;
37609;SDS011;23457;51.966;8.230;2022-10-26T06:11:39;16.38;;;9.88;;
37609;SDS011;23457;51.966;8.230;2022-10-26T06:14:07;17.50;;;9.02;;
37609;SDS011;23457;51.966;8.230;2022-10-26T06:19:39;13.27;;;8.95;;
37609;SDS011;23457;51.966;8.230;2022-10-26T06:28:01;19.92;;;9.68;;
37609;SDS011;23457;51.966;8.230;2022-10-26T06:30:30;17.02;;;10.07;;
37609;SDS011;23457;51.966;8.230;2022-10-26T06:32:57;20.52;;;10.13;;
37609;SDS011;23457;51.966;8.230;2022-10-26T06:35:46;21.42;;;10.32;;
37609;SDS011;23457;51.966;8.230;2022-10-26T06:38:21;21.10;;;9.30;;
37609;SDS011;23457;51.966;8.230;2022-10-26T06:40:50;15.05;;;9.23;;
37609;SDS011;23457;51.966;8.230;2022-10-26T06:51:40;22.80;;;10.35;;
37609;SDS011;23457;51.966;8.230;2022-10-26T06:54:14;16.65;;;9.13;;
37609;SDS011;23457;51.966;8.230;2022-10-26T06:56:43;16.60;;;8.70;;
37609;SDS011;23457;51.966;8.230;2022-10-26T06:59:16;15.10;;;8.88;;
37609;SDS011;23457;51.966;8.230;2022-10-26T07:01:54;21.13;;;9.40;;
37609;SDS011;23457;51.966;8.230;2022-10-26T07:04:20;16.40;;;8.45;;
37609;SDS011;23457;51.966;8.230;2022-10-26T07:06:47;13.80;;;8.15;;
37609;SDS011;23457;51.966;8.230;2022-10-26T07:09:14;15.85;;;8.10;;
37609;SDS011;23457;51.966;8.230;2022-10-26T07:11:40;18.50;;;8.38;;
37609;SDS011;23457;51.966;8.230;2022-10-26T07:14:07;13.63;;;8.30;;
37609;SDS011;23457;51.966;8.230;2022-10-26T07:16:33;11.93;;;8.07;;
37609;SDS011;23457;51.966;8.230;2022-10-26T07:19:00;14.68;;;8.32;;
37609;SDS011;23457;51.966;8.230;2022-10-26T07:21:27;16.75;;;7.50;;
37609;SDS011;23457;51.966;8.230;2022-10-26T07:23:53;12.00;;;7.75;;
37609;SDS011;23457;51.966;8.230;2022-10-26T07:26:22;15.00;;;9.18;;
37609;SDS011;23457;51.966;8.230;2022-10-26T07:28:50;13.70;;;8.27;;
37609;SDS011;23457;51.966;8.230;2022-10-26T07:31:17;14.43;;;8.88;;
37609;SDS011;23457;51.966;8.230;2022-10-26T07:33:43;20.95;;;9.07;;
37609;SDS011;23457;51.966;8.230;2022-10-26T07:36:11;15.07;;;8.68;;
37609;SDS011;23457;51.966;8.230;2022-10-26T07:38:37;16.38;;;8.25;;
37609;SDS011;23457;51.966;8.230;2022-10-26T07:41:04;14.15;;;8.52;;
37609;SDS011;23457;51.966;8.230;2022-10-26T07:43:31;17.77;;;8.13;;
37609;SDS011;23457;51.966;8.230;2022-10-26T07:45:58;16.20;;;8.65;;
37609;SDS011;23457;51.966;8.230;2022-10-26T07:48:24;19.50;;;8.38;;
37609;SDS011;23457;51.966;8.230;2022-10-26T07:50:51;13.95;;;9.00;;
37609;SDS011;23457;51.966;8.230;2022-10-26T07:53:18;13.90;;;8.40;;
37609;SDS011;23457;51.966;8.230;2022-10-26T07:55:55;17.83;;;8.25;;
37609;SDS011;23457;51.966;8.230;2022-10-26T07:58:23;14.65;;;8.00;;
37609;SDS011;23457;51.966;8.230;2022-10-26T08:00:51;19.38;;;7.85;;
37609;SDS011;23457;51.966;8.230;2022-10-26T08:03:19;14.20;;;7.57;;
37609;SDS011;23457;51.966;8.230;2022-10-26T08:05:46;15.00;;;7.43;;
37609;SDS011;23457;51.966;8.230;2022-10-26T08:08:16;14.60;;;6.97;;
37609;SDS011;23457;51.966;8.230;2022-10-26T08:13:13;15.38;;;7.70;;
37609;SDS011;23457;51.966;8.230;2022-10-26T08:15:40;12.63;;;6.28;;
37609;SDS011;23457;51.966;8.230;2022-10-26T08:18:07;12.90;;;6.28;;
37609;SDS011;23457;51.966;8.230;2022-10-26T08:20:33;11.88;;;5.90;;
37609;SDS011;23457;51.966;8.230;2022-10-26T08:23:00;10.30;;;6.05;;
37609;SDS011;23457;51.966;8.230;2022-10-26T08:25:31;12.38;;;6.25;;
37609;SDS011;23457;51.966;8.230;2022-10-26T08:28:02;13.80;;;6.53;;
37609;SDS011;23457;51.966;8.230;2022-10-26T08:30:32;11.43;;;5.85;;
37609;SDS011;23457;51.966;8.230;2022-10-26T08:33:01;10.88;;;5.80;;
37609;SDS011;23457;51.966;8.230;2022-10-26T08:35:30;12.30;;;5.70;;
37609;SDS011;23457;51.966;8.230;2022-10-26T08:37:58;14.95;;;5.88;;
37609;SDS011;23457;51.966;8.230;2022-10-26T08:40:31;10.45;;;4.97;;
37609;SDS011;23457;51.966;8.230;2022-10-26T08:43:10;6.88;;;4.72;;
37609;SDS011;23457;51.966;8.230;2022-10-26T08:48:59;11.68;;;4.68;;
37609;SDS011;23457;51.966;8.230;2022-10-26T08:51:31;8.90;;;4.30;;
37609;SDS011;23457;51.966;8.230;2022-10-26T08:54:03;11.80;;;4.28;;
37609;SDS011;23457;51.966;8.230;2022-10-26T08:56:34;9.35;;;4.55;;
37609;SDS011;23457;51.966;8.230;2022-10-26T08:59:23;11.35;;;4.65;;
37609;SDS011;23457;51.966;8.230;2022-10-26T09:01:57;10.35;;;4.57;;
37609;SDS011;23457;51.966;8.230;2022-10-26T09:04:27;8.68;;;4.65;;
37609;SDS011;23457;51.966;8.230;2022-10-26T09:16:56;16.70;;;5.00;;
37609;SDS011;23457;51.966;8.230;2022-10-26T09:21:53;14.50;;;4.43;;
37609;SDS011;23457;51.966;8.230;2022-10-26T09:24:24;12.65;;;4.45;;
37609;SDS011;23457;51.966;8.230;2022-10-26T09:29:38;10.10;;;4.47;;
37609;SDS011;23457;51.966;8.230;2022-10-26T09:32:16;10.07;;;4.20;;
37609;SDS011;23457;51.966;8.230;2022-10-26T09:34:47;16.20;;;3.50;;
37609;SDS011;23457;51.966;8.230;2022-10-26T09:37:24;8.18;;;3.72;;
37609;SDS011;23457;51.966;8.230;2022-10-26T09:42:48;6.35;;;3.60;;
37609;SDS011;23457;51.966;8.230;2022-10-26T09:45:23;8.38;;;3.15;;
37609;SDS011;23457;51.966;8.230;2022-10-26T09:48:26;6.07;;;3.10;;
37609;SDS011;23457;51.966;8.230;2022-10-26T09:51:00;10.48;;;2.90;;
37609;SDS011;23457;51.966;8.230;2022-10-26T09:53:30;6.65;;;2.80;;
37609;SDS011;23457;51.966;8.230;2022-10-26T09:58:31;9.07;;;3.10;;
37609;SDS011;23457;51.966;8.230;2022-10-26T10:01:03;7.63;;;2.65;;
37609;SDS011;23457;51.966;8.230;2022-10-26T10:03:30;8.02;;;2.67;;
37609;SDS011;23457;51.966;8.230;2022-10-26T10:06:17;6.63;;;2.60;;
37609;SDS011;23457;51.966;8.230;2022-10-26T10:11:55;8.25;;;2.90;;
37609;SDS011;23457;51.966;8.230;2022-10-26T10:14:27;4.20;;;2.10;;
37609;SDS011;23457;51.966;8.230;2022-10-26T10:17:06;9.23;;;2.20;;
37609;SDS011;23457;51.966;8.230;2022-10-26T10:19:45;6.60;;;1.80;;
37609;SDS011;23457;51.966;8.230;2022-10-26T10:27:22;4.18;;;2.08;;
37609;SDS011;23457;51.966;8.230;2022-10-26T10:32:21;8.35;;;1.98;;
37609;SDS011;23457;51.966;8.230;2022-10-26T10:34:50;8.48;;;1.80;;
37609;SDS011;23457;51.966;8.230;2022-10-26T10:43:10;4.45;;;1.60;;
37609;SDS011;23457;51.966;8.230;2022-10-26T10:45:39;4.43;;;1.67;;
37609;SDS011;23457;51.966;8.230;2022-10-26T10:48:19;7.07;;;2.05;;
37609;SDS011;23457;51.966;8.230;2022-10-26T10:51:02;5.35;;;1.83;;
37609;SDS011;23457;51.966;8.230;2022-10-26T10:53:43;4.90;;;1.70;;
37609;SDS011;23457;51.966;8.230;2022-10-26T11:01:53;3.75;;;1.45;;
37609;SDS011;23457;51.966;8.230;2022-10-26T11:07:54;4.30;;;1.90;;
37609;SDS011;23457;51.966;8.230;2022-10-26T11:10:41;3.15;;;1.52;;
37609;SDS011;23457;51.966;8.230;2022-10-26T11:13:17;5.72;;;1.90;;
37609;SDS011;23457;51.966;8.230;2022-10-26T11:15:52;8.98;;;1.85;;
37609;SDS011;23457;51.966;8.230;2022-10-26T11:18:35;5.60;;;1.70;;
37609;SDS011;23457;51.966;8.230;2022-10-26T11:21:24;6.47;;;1.77;;
37609;SDS011;23457;51.966;8.230;2022-10-26T11:26:40;5.22;;;1.48;;
37609;SDS011;23457;51.966;8.230;2022-10-26T11:32:10;3.67;;;1.38;;
37609;SDS011;23457;51.966;8.230;2022-10-26T11:34:49;5.18;;;1.48;;
37609;SDS011;23457;51.966;8.230;2022-10-26T11:43:47;6.97;;;1.88;;
37609;SDS011;23457;51.966;8.230;2022-10-26T11:46:35;3.80;;;1.80;;
37609;SDS011;23457;51.966;8.230;2022-10-26T11:49:20;6.78;;;1.67;;
37609;SDS011;23457;51.966;8.230;2022-10-26T11:52:07;8.40;;;1.75;;
37609;SDS011;23457;51.966;8.230;2022-10-26T11:54:44;3.83;;;1.50;;
37609;SDS011;23457;51.966;8.230;2022-10-26T11:57:17;10.50;;;1.40;;
37609;SDS011;23457;51.966;8.230;2022-10-26T12:00:04;4.80;;;1.50;;
37609;SDS011;23457;51.966;8.230;2022-10-26T12:02:37;5.75;;;1.80;;
37609;SDS011;23457;51.966;8.230;2022-10-26T12:08:04;4.75;;;1.40;;
37609;SDS011;23457;51.966;8.230;2022-10-26T12:10:37;9.27;;;2.08;;
37609;SDS011;23457;51.966;8.230;2022-10-26T12:13:29;4.75;;;1.45;;
37609;SDS011;23457;51.966;8.230;2022-10-26T12:16:10;9.87;;;1.87;;
37609;SDS011;23457;51.966;8.230;2022-10-26T12:19:07;9.93;;;1.42;;
37609;SDS011;23457;51.966;8.230;2022-10-26T12:21:40;5.78;;;1.70;;
37609;SDS011;23457;51.966;8.230;2022-10-26T12:24:43;5.20;;;1.58;;
37609;SDS011;23457;51.966;8.230;2022-10-26T12:27:18;5.88;;;1.52;;
37609;SDS011;23457;51.966;8.230;2022-10-26T12:37:59;7.90;;;1.65;;
37609;SDS011;23457;51.966;8.230;2022-10-26T12:45:42;6.45;;;1.92;;
37609;SDS011;23457;51.966;8.230;2022-10-26T12:48:53;4.82;;;2.17;;
37609;SDS011;23457;51.966;8.230;2022-10-26T12:56:29;11.20;;;1.60;;
37609;SDS011;23457;51.966;8.230;2022-10-26T12:59:31;8.02;;;1.80;;
37609;SDS011;23457;51.966;8.230;2022-10-26T13:02:22;9.23;;;2.03;;
37609;SDS011;23457;51.966;8.230;2022-10-26T13:08:08;12.95;;;1.67;;
37609;SDS011;23457;51.966;8.230;2022-10-26T13:11:01;7.45;;;1.90;;
37609;SDS011;23457;51.966;8.230;2022-10-26T13:13:30;8.02;;;1.80;;
37609;SDS011;23457;51.966;8.230;2022-10-26T13:15:59;7.25;;;2.03;;
37609;SDS011;23457;51.966;8.230;2022-10-26T13:18:27;6.53;;;1.70;;
37609;SDS011;23457;51.966;8.230;2022-10-26T13:23:39;5.95;;;1.63;;
37609;SDS011;23457;51.966;8.230;2022-10-26T13:26:12;9.13;;;1.83;;
37609;SDS011;23457;51.966;8.230;2022-10-26T13:28:47;7.93;;;2.03;;
37609;SDS011;23457;51.966;8.230;2022-10-26T13:31:51;6.95;;;1.90;;
37609;SDS011;23457;51.966;8.230;2022-10-26T13:34:19;8.57;;;2.28;;
37609;SDS011;23457;51.966;8.230;2022-10-26T13:37:02;8.93;;;1.88;;
37609;SDS011;23457;51.966;8.230;2022-10-26T13:39:38;4.55;;;2.00;;
37609;SDS011;23457;51.966;8.230;2022-10-26T13:42:12;5.55;;;1.90;;
37609;SDS011;23457;51.966;8.230;2022-10-26T13:47:43;9.10;;;2.33;;
37609;SDS011;23457;51.966;8.230;2022-10-26T13:50:18;9.88;;;2.53;;
37609;SDS011;23457;51.966;8.230;2022-10-26T13:53:05;7.22;;;2.33;;
37609;SDS011;23457;51.966;8.230;2022-10-26T13:55:44;9.55;;;2.15;;
37609;SDS011;23457;51.966;8.230;2022-10-26T13:58:40;11.75;;;2.28;;
37609;SDS011;23457;51.966;8.230;2022-10-26T14:01:12;7.22;;;1.80;;
37609;SDS011;23457;51.966;8.230;2022-10-26T14:03:42;6.20;;;2.30;;
37609;SDS011;23457;51.966;8.230;2022-10-26T14:06:12;9.98;;;2.22;;
37609;SDS011;23457;51.966;8.230;2022-10-26T14:08:43;11.27;;;2.70;;
37609;SDS011;23457;51.966;8.230;2022-10-26T14:11:13;11.57;;;2.28;;
37609;SDS011;23457;51.966;8.230;2022-10-26T14:13:43;6.72;;;2.40;;
37609;SDS011;23457;51.966;8.230;2022-10-26T14:16:13;5.72;;;2.17;;
37609;SDS011;23457;51.966;8.230;2022-10-26T14:18:44;10.40;;;2.00;;
37609;SDS011;23457;51.966;8.230;2022-10-26T14:21:14;6.07;;;2.10;;
37609;SDS011;23457;51.966;8.230;2022-10-26T14:26:19;9.68;;;2.20;;
37609;SDS011;23457;51.966;8.230;2022-10-26T14:28:49;7.70;;;2.10;;
37609;SDS011;23457;51.966;8.230;2022-10-26T14:31:22;11.07;;;2.13;;
37609;SDS011;23457;51.966;8.230;2022-10-26T14:33:50;7.03;;;2.22;;
37609;SDS011;23457;51.966;8.230;2022-10-26T14:36:19;5.43;;;2.15;;
37609;SDS011;23457;51.966;8.230;2022-10-26T14:38:53;4.85;;;2.30;;
37609;SDS011;23457;51.966;8.230;2022-10-26T14:41:24;10.30;;;2.05;;
37609;SDS011;23457;51.966;8.230;2022-10-26T14:43:52;6.07;;;2.05;;
37609;SDS011;23457;51.966;8.230;2022-10-26T14:46:21;6.95;;;2.15;;
37609;SDS011;23457;51.966;8.230;2022-10-26T14:48:49;6.43;;;2.22;;
37609;SDS011;23457;51.966;8.230;2022-10-26T14:51:28;8.27;;;2.33;;
37609;SDS011;23457;51.966;8.230;2022-10-26T14:53:57;8.77;;;2.28;;
37609;SDS011;23457;51.966;8.230;2022-10-26T14:56:27;10.52;;;2.45;;
37609;SDS011;23457;51.966;8.230;2022-10-26T14:59:37;6.60;;;2.10;;
37609;SDS011;23457;51.966;8.230;2022-10-26T15:02:10;10.95;;;1.85;;
37609;SDS011;23457;51.966;8.230;2022-10-26T15:04:58;8.02;;;2.00;;
37609;SDS011;23457;51.966;8.230;2022-10-26T15:07:34;7.93;;;2.22;;
37609;SDS011;23457;51.966;8.230;2022-10-26T15:10:03;8.38;;;2.55;;
37609;SDS011;23457;51.966;8.230;2022-10-26T15:12:32;8.02;;;2.35;;
37609;SDS011;23457;51.966;8.230;2022-10-26T15:17:50;8.45;;;2.35;;
37609;SDS011;23457;51.966;8.230;2022-10-26T15:20:20;9.38;;;2.72;;
37609;SDS011;23457;51.966;8.230;2022-10-26T15:22:55;8.15;;;2.92;;
37609;SDS011;23457;51.966;8.230;2022-10-26T15:25:25;4.63;;;2.30;;
37609;SDS011;23457;51.966;8.230;2022-10-26T15:27:53;8.30;;;2.42;;
37609;SDS011;23457;51.966;8.230;2022-10-26T15:30:24;10.48;;;2.72;;
37609;SDS011;23457;51.966;8.230;2022-10-26T15:32:53;6.10;;;2.53;;
37609;SDS011;23457;51.966;8.230;2022-10-26T15:37:51;7.68;;;2.90;;
37609;SDS011;23457;51.966;8.230;2022-10-26T15:40:18;12.43;;;3.90;;
37609;SDS011;23457;51.966;8.230;2022-10-26T15:42:52;8.27;;;2.90;;
37609;SDS011;23457;51.966;8.230;2022-10-26T15:45:22;7.50;;;2.80;;
37609;SDS011;23457;51.966;8.230;2022-10-26T15:47:54;9.73;;;3.03;;
37609;SDS011;23457;51.966;8.230;2022-10-26T15:50:24;9.45;;;2.95;;
37609;SDS011;23457;51.966;8.230;2022-10-26T15:52:58;6.30;;;2.67;;
37609;SDS011;23457;51.966;8.230;2022-10-26T15:55:27;5.85;;;2.88;;
37609;SDS011;23457;51.966;8.230;2022-10-26T15:57:55;6.37;;;2.70;;
37609;SDS011;23457;51.966;8.230;2022-10-26T16:00:22;6.13;;;2.90;;
37609;SDS011;23457;51.966;8.230;2022-10-26T16:02:48;9.43;;;2.65;;
37609;SDS011;23457;51.966;8.230;2022-10-26T16:05:15;5.10;;;2.70;;
37609;SDS011;23457;51.966;8.230;2022-10-26T16:07:43;8.60;;;2.72;;
37609;SDS011;23457;51.966;8.230;2022-10-26T16:10:21;10.43;;;2.38;;
37609;SDS011;23457;51.966;8.230;2022-10-26T16:12:50;9.43;;;2.60;;
37609;SDS011;23457;51.966;8.230;2022-10-26T16:15:21;5.13;;;2.50;;
37609;SDS011;23457;51.966;8.230;2022-10-26T16:17:50;4.90;;;2.42;;
37609;SDS011;23457;51.966;8.230;2022-10-26T16:20:18;6.95;;;3.10;;
37609;SDS011;23457;51.966;8.230;2022-10-26T16:22:50;6.45;;;3.30;;
37609;SDS011;23457;51.966;8.230;2022-10-26T16:25:20;4.82;;;3.05;;
37609;SDS011;23457;51.966;8.230;2022-10-26T16:27:50;14.00;;;3.33;;
37609;SDS011;23457;51.966;8.230;2022-10-26T16:30:18;7.30;;;2.92;;
37609;SDS011;23457;51.966;8.230;2022-10-26T16:32:45;6.00;;;2.53;;
37609;SDS011;23457;51.966;8.230;2022-10-26T16:35:12;6.88;;;2.95;;
37609;SDS011;23457;51.966;8.230;2022-10-26T16:37:39;8.98;;;3.42;;
37609;SDS011;23457;51.966;8.230;2022-10-26T16:40:06;7.47;;;3.65;;
37609;SDS011;23457;51.966;8.230;2022-10-26T16:42:34;8.68;;;3.90;;
37609;SDS011;23457;51.966;8.230;2022-10-26T16:45:01;9.43;;;4.30;;
37609;SDS011;23457;51.966;8.230;2022-10-26T16:47:29;13.23;;;4.60;;
37609;SDS011;23457;51.966;8.230;2022-10-26T16:50:01;8.48;;;4.15;;
37609;SDS011;23457;51.966;8.230;2022-10-26T16:52:29;14.13;;;4.10;;
37609;SDS011;23457;51.966;8.230;2022-10-26T16:54:56;9.02;;;4.70;;
37609;SDS011;23457;51.966;8.230;2022-10-26T16:57:22;9.50;;;4.38;;
37609;SDS011;23457;51.966;8.230;2022-10-26T16:59:49;10.73;;;4.07;;
37609;SDS011;23457;51.966;8.230;2022-10-26T17:02:16;8.13;;;4.10;;
37609;SDS011;23457;51.966;8.230;2022-10-26T17:04:53;11.43;;;4.10;;
37609;SDS011;23457;51.966;8.230;2022-10-26T17:07:20;8.07;;;4.30;;
37609;SDS011;23457;51.966;8.230;2022-10-26T17:09:47;9.57;;;4.35;;
37609;SDS011;23457;51.966;8.230;2022-10-26T17:12:13;7.55;;;4.15;;
37609;SDS011;23457;51.966;8.230;2022-10-26T17:14:40;7.90;;;3.78;;
37609;SDS011;23457;51.966;8.230;2022-10-26T17:17:06;8.90;;;4.10;;
37609;SDS011;23457;51.966;8.230;2022-10-26T17:19:33;7.20;;;3.70;;
37609;SDS011;23457;51.966;8.230;2022-10-26T17:21:59;11.32;;;4.28;;
37609;SDS011;23457;51.966;8.230;2022-10-26T17:24:31;7.90;;;4.13;;
37609;SDS011;23457;51.966;8.230;2022-10-26T17:26:58;9.07;;;4.80;;
37609;SDS011;23457;51.966;8.230;2022-10-26T17:29:31;8.38;;;4.57;;
37609;SDS011;23457;51.966;8.230;2022-10-26T17:31:57;9.73;;;4.68;;
37609;SDS011;23457;51.966;8.230;2022-10-26T17:34:24;11.65;;;4.45;;
37609;SDS011;23457;51.966;8.230;2022-10-26T17:39:20;8.98;;;4.28;;
37609;SDS011;23457;51.966;8.230;2022-10-26T17:41:46;11.05;;;4.80;;
37609;SDS011;23457;51.966;8.230;2022-10-26T17:44:13;8.30;;;4.57;;
37609;SDS011;23457;51.966;8.230;2022-10-26T17:46:41;10.77;;;5.07;;